Bowerman Airport Hoquiam US
ICAO: KHQM
IATA: HQM
Category: Medium
Scheduled Services: No

Elevation: 18 ft
TransAlt. 18000 ft.

Airport Communications:
ASOS:135.775
SEATTLE CNTR:128.3
SEATTLE RDO:122.2
CTAF/UNICOM:122.7

KHQM Zoom In..

Runways:

(A) RW 06 length 5000 ft width 150 ft
---- / hdg 60

(B) RW 24 length 5000 ft width 150 ft
ILS 108.70 / hdg 240

Location; KHQM
Day. 24 / Time. 13.40 Zulu
* Altimeter: 30.04
* Temperature: 13° c. 55.4°f.
* Wind from: 260° Speed 05 kn.
Dewpoint: 12° c.
Visibility: 3 Statute Miles.
Clouds: Few 800 ft.
Clouds: Broken 1500 ft.
Clouds: Overcast 2200 ft.
Conditions: Mist.

KHQM 241340Z AUTO 26005KT 3SM BR FEW008 BKN015 OVC022 13/12 A3004 RMK AO2 T01280122


Wind From 260°
Speed 05 kn.

 
 
jpsmedia.com for Web Design SOUNDCLOUD worldairports.se 2018   terms of use